sensor_id;sensor_type;location;lat;lon;timestamp;pressure;altitude;pressure_sealevel;temperature;humidity
33155;BME280;19511;42.682;23.332;2023-04-07T00:02:18;94886.63;;;3.06;93.42
33155;BME280;19511;42.682;23.332;2023-04-07T00:04:43;94845.06;;;2.93;92.97
33155;BME280;19511;42.682;23.332;2023-04-07T00:07:13;94858.06;;;3.00;92.16
33155;BME280;19511;42.682;23.332;2023-04-07T00:09:41;94769.44;;;2.43;91.11
33155;BME280;19511;42.682;23.332;2023-04-07T00:12:07;94859.22;;;2.99;91.90
33155;BME280;19511;42.682;23.332;2023-04-07T00:14:36;94866.78;;;3.09;92.14
33155;BME280;19511;42.682;23.332;2023-04-07T00:17:01;94869.91;;;3.11;91.18
33155;BME280;19511;42.682;23.332;2023-04-07T00:19:27;94848.69;;;2.97;91.71
33155;BME280;19511;42.682;23.332;2023-04-07T00:21:57;94860.44;;;3.01;91.94
33155;BME280;19511;42.682;23.332;2023-04-07T00:24:23;94844.69;;;2.94;91.73
33155;BME280;19511;42.682;23.332;2023-04-07T00:26:48;94864.78;;;3.06;91.39
33155;BME280;19511;42.682;23.332;2023-04-07T00:29:18;94865.09;;;3.01;92.06
33155;BME280;19511;42.682;23.332;2023-04-07T00:31:43;94754.91;;;2.36;91.48
33155;BME280;19511;42.682;23.332;2023-04-07T00:34:09;94860.50;;;3.08;91.78
33155;BME280;19511;42.682;23.332;2023-04-07T00:36:36;94857.13;;;2.88;93.25
33155;BME280;19511;42.682;23.332;2023-04-07T00:39:05;94843.03;;;2.86;92.54
33155;BME280;19511;42.682;23.332;2023-04-07T00:41:33;94874.88;;;3.02;92.17
33155;BME280;19511;42.682;23.332;2023-04-07T00:43:59;94858.78;;;2.97;92.25
33155;BME280;19511;42.682;23.332;2023-04-07T00:46:25;94872.03;;;2.94;91.66
33155;BME280;19511;42.682;23.332;2023-04-07T00:48:50;94862.28;;;2.93;91.55
33155;BME280;19511;42.682;23.332;2023-04-07T00:51:20;94870.56;;;3.01;91.42
33155;BME280;19511;42.682;23.332;2023-04-07T00:53:50;94869.59;;;2.89;93.04
33155;BME280;19511;42.682;23.332;2023-04-07T00:56:20;94755.97;;;2.04;98.49
33155;BME280;19511;42.682;23.332;2023-04-07T00:58:50;94861.09;;;2.68;98.47
33155;BME280;19511;42.682;23.332;2023-04-07T01:01:22;94858.34;;;2.68;99.75
33155;BME280;19511;42.682;23.332;2023-04-07T01:03:57;94870.72;;;2.58;100.00
33155;BME280;19511;42.682;23.332;2023-04-07T01:06:32;94865.72;;;2.40;100.00
33155;BME280;19511;42.682;23.332;2023-04-07T01:11:43;94763.97;;;1.27;100.00
33155;BME280;19511;42.682;23.332;2023-04-07T01:14:14;94841.84;;;1.28;100.00
33155;BME280;19511;42.682;23.332;2023-04-07T01:16:47;94857.91;;;1.34;100.00
33155;BME280;19511;42.682;23.332;2023-04-07T01:21:58;94861.78;;;1.33;100.00
33155;BME280;19511;42.682;23.332;2023-04-07T01:24:38;94864.25;;;1.22;100.00
33155;BME280;19511;42.682;23.332;2023-04-07T01:29:46;94851.59;;;0.94;100.00
33155;BME280;19511;42.682;23.332;2023-04-07T01:32:17;94837.22;;;0.93;100.00
33155;BME280;19511;42.682;23.332;2023-04-07T01:34:46;94833.81;;;0.80;100.00
33155;BME280;19511;42.682;23.332;2023-04-07T01:37:13;94855.91;;;0.95;100.00
33155;BME280;19511;42.682;23.332;2023-04-07T01:39:40;94758.84;;;0.31;100.00
33155;BME280;19511;42.682;23.332;2023-04-07T01:42:06;94760.97;;;0.22;100.00
33155;BME280;19511;42.682;23.332;2023-04-07T01:44:33;94845.34;;;0.74;100.00
33155;BME280;19511;42.682;23.332;2023-04-07T01:46:59;94796.19;;;0.51;100.00
33155;BME280;19511;42.682;23.332;2023-04-07T01:49:29;94842.53;;;0.70;100.00
33155;BME280;19511;42.682;23.332;2023-04-07T01:51:59;94856.84;;;0.67;100.00
33155;BME280;19511;42.682;23.332;2023-04-07T01:54:25;94859.91;;;0.65;100.00
33155;BME280;19511;42.682;23.332;2023-04-07T01:56:51;94854.66;;;0.73;100.00
33155;BME280;19511;42.682;23.332;2023-04-07T01:59:16;94841.69;;;0.50;100.00
33155;BME280;19511;42.682;23.332;2023-04-07T02:01:42;94855.28;;;0.66;100.00
33155;BME280;19511;42.682;23.332;2023-04-07T02:04:11;94845.09;;;0.63;100.00
33155;BME280;19511;42.682;23.332;2023-04-07T02:06:51;94856.34;;;0.45;100.00
33155;BME280;19511;42.682;23.332;2023-04-07T02:09:26;94845.13;;;0.31;100.00
33155;BME280;19511;42.682;23.332;2023-04-07T02:11:56;94848.63;;;0.31;100.00
33155;BME280;19511;42.682;23.332;2023-04-07T02:14:22;94847.03;;;0.46;100.00
33155;BME280;19511;42.682;23.332;2023-04-07T02:16:48;94852.56;;;0.50;100.00
33155;BME280;19511;42.682;23.332;2023-04-07T02:19:15;94818.16;;;0.42;100.00
33155;BME280;19511;42.682;23.332;2023-04-07T02:21:45;94837.75;;;0.47;100.00
33155;BME280;19511;42.682;23.332;2023-04-07T02:24:13;94838.34;;;0.57;100.00
33155;BME280;19511;42.682;23.332;2023-04-07T02:26:44;94826.13;;;0.67;100.00
33155;BME280;19511;42.682;23.332;2023-04-07T02:29:09;94838.91;;;0.82;100.00
33155;BME280;19511;42.682;23.332;2023-04-07T02:31:36;94742.75;;;0.07;100.00
33155;BME280;19511;42.682;23.332;2023-04-07T02:34:01;94844.06;;;0.87;100.00
33155;BME280;19511;42.682;23.332;2023-04-07T02:36:29;94840.22;;;0.72;100.00
33155;BME280;19511;42.682;23.332;2023-04-07T02:38:55;94846.66;;;0.64;100.00
33155;BME280;19511;42.682;23.332;2023-04-07T02:41:21;94846.13;;;0.58;100.00
33155;BME280;19511;42.682;23.332;2023-04-07T02:43:47;94855.38;;;0.54;100.00
33155;BME280;19511;42.682;23.332;2023-04-07T02:46:12;94833.34;;;0.59;100.00
33155;BME280;19511;42.682;23.332;2023-04-07T02:48:38;94742.03;;;0.10;100.00
33155;BME280;19511;42.682;23.332;2023-04-07T02:51:03;94841.47;;;0.75;100.00
33155;BME280;19511;42.682;23.332;2023-04-07T02:53:29;94849.59;;;0.91;100.00
33155;BME280;19511;42.682;23.332;2023-04-07T02:55:54;94855.13;;;0.94;100.00
33155;BME280;19511;42.682;23.332;2023-04-07T02:58:19;94844.94;;;0.91;100.00
33155;BME280;19511;42.682;23.332;2023-04-07T03:00:47;94836.34;;;0.89;100.00
33155;BME280;19511;42.682;23.332;2023-04-07T03:03:23;94856.84;;;1.03;100.00
33155;BME280;19511;42.682;23.332;2023-04-07T03:05:53;94824.94;;;0.84;100.00
33155;BME280;19511;42.682;23.332;2023-04-07T03:08:18;94838.06;;;0.97;100.00
33155;BME280;19511;42.682;23.332;2023-04-07T03:10:44;94849.38;;;1.16;100.00
33155;BME280;19511;42.682;23.332;2023-04-07T03:13:13;94848.16;;;1.33;100.00
33155;BME280;19511;42.682;23.332;2023-04-07T03:15:43;94836.69;;;1.23;100.00
33155;BME280;19511;42.682;23.332;2023-04-07T03:18:08;94753.75;;;0.65;100.00
33155;BME280;19511;42.682;23.332;2023-04-07T03:20:34;94849.59;;;1.26;100.00
33155;BME280;19511;42.682;23.332;2023-04-07T03:23:03;94859.41;;;1.31;100.00
33155;BME280;19511;42.682;23.332;2023-04-07T03:25:28;94844.13;;;1.26;100.00
33155;BME280;19511;42.682;23.332;2023-04-07T03:27:54;94820.09;;;1.12;100.00
33155;BME280;19511;42.682;23.332;2023-04-07T03:30:23;94833.97;;;1.23;100.00
33155;BME280;19511;42.682;23.332;2023-04-07T03:32:49;94749.53;;;0.68;100.00
33155;BME280;19511;42.682;23.332;2023-04-07T03:35:15;94807.84;;;1.22;100.00
33155;BME280;19511;42.682;23.332;2023-04-07T03:37:40;94840.25;;;1.67;100.00
33155;BME280;19511;42.682;23.332;2023-04-07T03:40:07;94817.34;;;1.91;100.00
33155;BME280;19511;42.682;23.332;2023-04-07T03:42:33;94827.41;;;2.10;100.00
33155;BME280;19511;42.682;23.332;2023-04-07T03:45:01;94750.84;;;1.76;100.00
33155;BME280;19511;42.682;23.332;2023-04-07T03:47:27;94837.44;;;2.52;100.00
33155;BME280;19511;42.682;23.332;2023-04-07T03:49:52;94755.38;;;2.15;100.00
33155;BME280;19511;42.682;23.332;2023-04-07T03:52:18;94842.22;;;2.82;100.00
33155;BME280;19511;42.682;23.332;2023-04-07T03:54:46;94845.44;;;2.91;100.00
33155;BME280;19511;42.682;23.332;2023-04-07T03:57:11;94841.25;;;2.98;98.63
33155;BME280;19511;42.682;23.332;2023-04-07T03:59:37;94851.88;;;3.03;97.64
33155;BME280;19511;42.682;23.332;2023-04-07T04:02:03;94864.44;;;3.07;100.00
33155;BME280;19511;42.682;23.332;2023-04-07T04:04:28;94865.53;;;2.76;100.00
33155;BME280;19511;42.682;23.332;2023-04-07T04:06:53;94767.44;;;1.67;100.00
33155;BME280;19511;42.682;23.332;2023-04-07T04:09:19;94860.97;;;1.91;100.00
33155;BME280;19511;42.682;23.332;2023-04-07T04:11:45;94874.25;;;1.92;100.00
33155;BME280;19511;42.682;23.332;2023-04-07T04:14:10;94766.47;;;1.17;100.00
33155;BME280;19511;42.682;23.332;2023-04-07T04:16:36;94862.16;;;1.70;100.00
33155;BME280;19511;42.682;23.332;2023-04-07T04:19:02;94873.28;;;1.61;100.00
33155;BME280;19511;42.682;23.332;2023-04-07T04:21:27;94871.41;;;1.66;100.00
33155;BME280;19511;42.682;23.332;2023-04-07T04:23:52;94844.13;;;1.26;100.00
33155;BME280;19511;42.682;23.332;2023-04-07T04:26:18;94873.47;;;1.53;100.00
33155;BME280;19511;42.682;23.332;2023-04-07T04:28:44;94874.41;;;1.60;100.00
33155;BME280;19511;42.682;23.332;2023-04-07T04:31:16;94864.44;;;1.49;100.00
33155;BME280;19511;42.682;23.332;2023-04-07T04:33:42;94768.41;;;0.77;100.00
33155;BME280;19511;42.682;23.332;2023-04-07T04:36:07;94874.78;;;1.59;100.00
33155;BME280;19511;42.682;23.332;2023-04-07T04:38:33;94891.25;;;1.66;100.00
33155;BME280;19511;42.682;23.332;2023-04-07T04:40:58;94887.88;;;1.53;100.00
33155;BME280;19511;42.682;23.332;2023-04-07T04:43:27;94882.28;;;1.46;100.00
33155;BME280;19511;42.682;23.332;2023-04-07T04:45:53;94902.44;;;1.61;100.00
33155;BME280;19511;42.682;23.332;2023-04-07T04:48:22;94781.44;;;0.87;100.00
33155;BME280;19511;42.682;23.332;2023-04-07T04:50:47;94896.19;;;1.41;100.00
33155;BME280;19511;42.682;23.332;2023-04-07T04:53:13;94878.63;;;1.38;100.00
33155;BME280;19511;42.682;23.332;2023-04-07T04:55:38;94865.72;;;1.35;100.00
33155;BME280;19511;42.682;23.332;2023-04-07T04:58:09;94869.31;;;1.39;100.00
33155;BME280;19511;42.682;23.332;2023-04-07T05:00:34;94779.72;;;0.79;100.00
33155;BME280;19511;42.682;23.332;2023-04-07T05:03:05;94887.47;;;1.51;100.00
33155;BME280;19511;42.682;23.332;2023-04-07T05:05:31;94882.88;;;1.55;100.00
33155;BME280;19511;42.682;23.332;2023-04-07T05:07:56;94876.63;;;1.55;100.00
33155;BME280;19511;42.682;23.332;2023-04-07T05:10:23;94862.34;;;1.42;100.00
33155;BME280;19511;42.682;23.332;2023-04-07T05:12:52;94916.09;;;1.81;100.00
33155;BME280;19511;42.682;23.332;2023-04-07T05:15:17;94894.13;;;1.73;100.00
33155;BME280;19511;42.682;23.332;2023-04-07T05:17:43;94924.47;;;1.91;100.00
33155;BME280;19511;42.682;23.332;2023-04-07T05:20:14;94916.28;;;1.91;100.00
33155;BME280;19511;42.682;23.332;2023-04-07T05:22:40;94927.34;;;1.99;100.00
33155;BME280;19511;42.682;23.332;2023-04-07T05:25:05;94921.97;;;2.02;100.00
33155;BME280;19511;42.682;23.332;2023-04-07T05:27:31;94909.34;;;1.94;100.00
33155;BME280;19511;42.682;23.332;2023-04-07T05:29:57;94908.69;;;2.01;100.00
33155;BME280;19511;42.682;23.332;2023-04-07T05:32:23;94905.69;;;2.06;100.00
33155;BME280;19511;42.682;23.332;2023-04-07T05:34:48;94798.22;;;1.48;100.00
33155;BME280;19511;42.682;23.332;2023-04-07T05:37:17;94927.16;;;2.31;100.00
33155;BME280;19511;42.682;23.332;2023-04-07T05:39:43;94820.94;;;1.75;100.00
33155;BME280;19511;42.682;23.332;2023-04-07T05:42:12;94922.38;;;2.47;100.00
33155;BME280;19511;42.682;23.332;2023-04-07T05:44:37;94831.94;;;2.02;100.00
33155;BME280;19511;42.682;23.332;2023-04-07T05:47:03;94920.38;;;2.67;100.00
33155;BME280;19511;42.682;23.332;2023-04-07T05:49:33;94919.72;;;2.74;100.00
33155;BME280;19511;42.682;23.332;2023-04-07T05:51:58;94906.53;;;2.56;100.00
33155;BME280;19511;42.682;23.332;2023-04-07T05:54:29;94899.41;;;2.48;100.00
33155;BME280;19511;42.682;23.332;2023-04-07T05:56:54;94907.50;;;2.68;100.00
33155;BME280;19511;42.682;23.332;2023-04-07T05:59:20;94902.19;;;2.75;100.00
33155;BME280;19511;42.682;23.332;2023-04-07T06:01:51;94918.63;;;2.78;100.00
33155;BME280;19511;42.682;23.332;2023-04-07T06:04:17;94919.06;;;2.81;100.00
33155;BME280;19511;42.682;23.332;2023-04-07T06:06:42;94923.72;;;2.80;100.00
33155;BME280;19511;42.682;23.332;2023-04-07T06:09:08;94897.78;;;2.67;100.00
33155;BME280;19511;42.682;23.332;2023-04-07T06:11:33;94925.78;;;2.87;100.00
33155;BME280;19511;42.682;23.332;2023-04-07T06:14:02;94912.59;;;2.92;100.00
33155;BME280;19511;42.682;23.332;2023-04-07T06:16:28;94920.59;;;3.05;100.00
33155;BME280;19511;42.682;23.332;2023-04-07T06:18:56;94900.94;;;2.96;100.00
33155;BME280;19511;42.682;23.332;2023-04-07T06:21:22;94908.59;;;3.13;100.00
33155;BME280;19511;42.682;23.332;2023-04-07T06:23:48;94908.56;;;3.09;100.00
33155;BME280;19511;42.682;23.332;2023-04-07T06:26:17;94851.69;;;2.92;100.00
33155;BME280;19511;42.682;23.332;2023-04-07T06:28:43;94911.13;;;3.52;100.00
33155;BME280;19511;42.682;23.332;2023-04-07T06:31:08;94914.28;;;3.54;100.00
33155;BME280;19511;42.682;23.332;2023-04-07T06:33:34;94916.69;;;3.59;100.00
33155;BME280;19511;42.682;23.332;2023-04-07T06:35:59;94903.41;;;3.62;100.00
33155;BME280;19511;42.682;23.332;2023-04-07T06:38:25;94812.25;;;3.20;100.00
33155;BME280;19511;42.682;23.332;2023-04-07T06:40:54;94808.47;;;3.28;100.00
33155;BME280;19511;42.682;23.332;2023-04-07T06:43:20;94832.38;;;3.69;100.00
33155;BME280;19511;42.682;23.332;2023-04-07T06:45:45;94897.59;;;4.35;100.00
33155;BME280;19511;42.682;23.332;2023-04-07T06:48:11;94922.44;;;4.56;100.00
33155;BME280;19511;42.682;23.332;2023-04-07T06:50:36;94920.06;;;4.51;100.00
33155;BME280;19511;42.682;23.332;2023-04-07T06:53:05;94920.88;;;4.55;100.00
33155;BME280;19511;42.682;23.332;2023-04-07T06:55:30;94920.94;;;4.63;100.00
33155;BME280;19511;42.682;23.332;2023-04-07T06:57:56;94898.97;;;4.55;99.74
33155;BME280;19511;42.682;23.332;2023-04-07T07:00:28;94900.97;;;4.58;100.00
33155;BME280;19511;42.682;23.332;2023-04-07T07:03:03;94925.84;;;4.84;97.60
33155;BME280;19511;42.682;23.332;2023-04-07T07:05:28;94916.59;;;5.03;93.43
33155;BME280;19511;42.682;23.332;2023-04-07T07:07:59;94923.91;;;5.40;95.45
33155;BME280;19511;42.682;23.332;2023-04-07T07:10:31;94921.59;;;5.49;84.12
33155;BME280;19511;42.682;23.332;2023-04-07T07:12:57;94920.16;;;5.73;86.99
33155;BME280;19511;42.682;23.332;2023-04-07T07:15:26;94867.63;;;5.68;71.52
33155;BME280;19511;42.682;23.332;2023-04-07T07:17:52;94905.81;;;6.09;64.88
33155;BME280;19511;42.682;23.332;2023-04-07T07:20:22;94919.63;;;6.31;65.44
33155;BME280;19511;42.682;23.332;2023-04-07T07:22:47;94925.13;;;6.34;62.86
33155;BME280;19511;42.682;23.332;2023-04-07T07:25:13;94913.38;;;6.41;60.18
33155;BME280;19511;42.682;23.332;2023-04-07T07:27:38;94924.00;;;6.53;60.14
33155;BME280;19511;42.682;23.332;2023-04-07T07:30:04;94912.16;;;6.24;60.35
33155;BME280;19511;42.682;23.332;2023-04-07T07:32:30;94833.50;;;5.72;60.50
33155;BME280;19511;42.682;23.332;2023-04-07T07:34:56;94929.06;;;6.30;59.91
33155;BME280;19511;42.682;23.332;2023-04-07T07:37:21;94933.81;;;6.40;60.02
33155;BME280;19511;42.682;23.332;2023-04-07T07:39:47;94851.19;;;5.82;59.62
33155;BME280;19511;42.682;23.332;2023-04-07T07:42:19;94937.38;;;6.51;59.65
33155;BME280;19511;42.682;23.332;2023-04-07T07:44:44;94938.53;;;6.58;58.75
33155;BME280;19511;42.682;23.332;2023-04-07T07:47:16;94934.63;;;6.51;57.88
33155;BME280;19511;42.682;23.332;2023-04-07T07:49:42;94935.41;;;6.56;58.53
33155;BME280;19511;42.682;23.332;2023-04-07T07:52:11;94902.81;;;6.50;58.50
33155;BME280;19511;42.682;23.332;2023-04-07T07:54:40;94931.50;;;6.78;56.47
33155;BME280;19511;42.682;23.332;2023-04-07T07:57:06;94944.50;;;6.92;56.90
33155;BME280;19511;42.682;23.332;2023-04-07T07:59:35;94849.00;;;6.38;56.17
33155;BME280;19511;42.682;23.332;2023-04-07T08:02:00;94933.09;;;6.97;56.64
33155;BME280;19511;42.682;23.332;2023-04-07T08:04:26;94930.75;;;6.96;56.16
33155;BME280;19511;42.682;23.332;2023-04-07T08:06:52;94924.44;;;7.13;55.42
33155;BME280;19511;42.682;23.332;2023-04-07T08:09:18;94940.19;;;7.16;54.84
33155;BME280;19511;42.682;23.332;2023-04-07T08:11:47;94903.25;;;6.92;54.67
33155;BME280;19511;42.682;23.332;2023-04-07T08:14:19;94808.97;;;6.27;55.55
33155;BME280;19511;42.682;23.332;2023-04-07T08:16:45;94928.00;;;7.14;55.63
33155;BME280;19511;42.682;23.332;2023-04-07T08:19:23;94854.94;;;6.62;55.69
33155;BME280;19511;42.682;23.332;2023-04-07T08:21:48;94944.91;;;7.34;55.04
33155;BME280;19511;42.682;23.332;2023-04-07T08:24:15;94876.91;;;7.06;54.74
33155;BME280;19511;42.682;23.332;2023-04-07T08:26:41;94938.56;;;7.51;53.86
33155;BME280;19511;42.682;23.332;2023-04-07T08:29:13;94937.38;;;7.60;54.06
33155;BME280;19511;42.682;23.332;2023-04-07T08:31:39;94933.06;;;7.59;52.81
33155;BME280;19511;42.682;23.332;2023-04-07T08:34:05;94935.03;;;7.55;53.61
33155;BME280;19511;42.682;23.332;2023-04-07T08:36:31;94922.88;;;7.27;53.78
33155;BME280;19511;42.682;23.332;2023-04-07T08:38:56;94905.22;;;7.10;54.34
33155;BME280;19511;42.682;23.332;2023-04-07T08:41:46;94896.94;;;7.13;54.47
33155;BME280;19511;42.682;23.332;2023-04-07T08:44:16;94932.31;;;7.26;54.75
33155;BME280;19511;42.682;23.332;2023-04-07T08:46:46;94931.13;;;7.27;53.11
33155;BME280;19511;42.682;23.332;2023-04-07T08:49:14;94928.38;;;7.23;52.94
33155;BME280;19511;42.682;23.332;2023-04-07T08:51:51;94913.44;;;7.28;52.47
33155;BME280;19511;42.682;23.332;2023-04-07T08:54:18;94919.72;;;7.43;52.20
33155;BME280;19511;42.682;23.332;2023-04-07T08:56:46;94945.66;;;7.38;52.48
33155;BME280;19511;42.682;23.332;2023-04-07T08:59:14;94946.03;;;7.47;53.05
33155;BME280;19511;42.682;23.332;2023-04-07T09:01:47;94946.06;;;7.11;52.10
33155;BME280;19511;42.682;23.332;2023-04-07T09:04:15;94937.03;;;7.25;52.78
33155;BME280;19511;42.682;23.332;2023-04-07T09:06:42;94943.28;;;7.40;52.82
33155;BME280;19511;42.682;23.332;2023-04-07T09:09:10;94939.00;;;7.39;53.14
33155;BME280;19511;42.682;23.332;2023-04-07T09:11:38;94933.88;;;7.27;53.72
33155;BME280;19511;42.682;23.332;2023-04-07T09:14:04;94927.59;;;7.12;53.13
33155;BME280;19511;42.682;23.332;2023-04-07T09:16:30;94933.47;;;7.28;53.20
33155;BME280;19511;42.682;23.332;2023-04-07T09:18:57;94942.47;;;7.65;53.80
33155;BME280;19511;42.682;23.332;2023-04-07T09:21:25;94854.50;;;7.18;53.08
33155;BME280;19511;42.682;23.332;2023-04-07T09:23:51;94933.41;;;7.86;54.74
33155;BME280;19511;42.682;23.332;2023-04-07T09:28:44;94869.00;;;7.51;52.16
33155;BME280;19511;42.682;23.332;2023-04-07T09:31:10;94849.81;;;7.15;51.46
33155;BME280;19511;42.682;23.332;2023-04-07T09:33:41;94934.53;;;7.96;52.61
33155;BME280;19511;42.682;23.332;2023-04-07T09:36:06;94930.22;;;7.95;51.72
33155;BME280;19511;42.682;23.332;2023-04-07T09:38:34;94949.44;;;8.06;51.64
33155;BME280;19511;42.682;23.332;2023-04-07T09:41:13;94848.16;;;7.50;51.03
33155;BME280;19511;42.682;23.332;2023-04-07T09:43:44;94865.41;;;7.61;51.98
33155;BME280;19511;42.682;23.332;2023-04-07T09:46:14;94951.31;;;8.34;51.05
33155;BME280;19511;42.682;23.332;2023-04-07T09:48:42;94934.41;;;8.28;51.03
33155;BME280;19511;42.682;23.332;2023-04-07T09:51:13;94936.78;;;8.23;51.97
33155;BME280;19511;42.682;23.332;2023-04-07T09:53:46;94954.91;;;8.24;51.67
33155;BME280;19511;42.682;23.332;2023-04-07T09:56:18;94957.22;;;8.29;52.66
33155;BME280;19511;42.682;23.332;2023-04-07T09:58:45;94945.09;;;8.12;52.48
33155;BME280;19511;42.682;23.332;2023-04-07T10:01:12;94942.44;;;7.79;52.68
33155;BME280;19511;42.682;23.332;2023-04-07T10:03:38;94951.84;;;7.96;54.33
33155;BME280;19511;42.682;23.332;2023-04-07T10:06:07;94956.06;;;8.30;53.30
33155;BME280;19511;42.682;23.332;2023-04-07T10:08:38;94951.28;;;8.45;54.17
33155;BME280;19511;42.682;23.332;2023-04-07T10:11:04;94891.53;;;8.24;52.80
33155;BME280;19511;42.682;23.332;2023-04-07T10:13:32;94946.50;;;8.63;51.98
33155;BME280;19511;42.682;23.332;2023-04-07T10:15:58;94938.22;;;8.60;51.66
33155;BME280;19511;42.682;23.332;2023-04-07T10:18:29;94940.28;;;8.34;52.34
33155;BME280;19511;42.682;23.332;2023-04-07T10:20:58;94932.09;;;8.12;52.33
33155;BME280;19511;42.682;23.332;2023-04-07T10:23:31;94943.94;;;8.02;53.45
33155;BME280;19511;42.682;23.332;2023-04-07T10:25:58;94951.78;;;8.11;53.45
33155;BME280;19511;42.682;23.332;2023-04-07T10:28:26;94948.63;;;8.12;54.35
33155;BME280;19511;42.682;23.332;2023-04-07T10:30:57;94927.09;;;7.89;52.88
33155;BME280;19511;42.682;23.332;2023-04-07T10:33:47;94955.03;;;7.91;52.54
33155;BME280;19511;42.682;23.332;2023-04-07T10:36:19;94957.72;;;8.02;54.05
33155;BME280;19511;42.682;23.332;2023-04-07T10:41:39;94910.91;;;7.98;54.50
33155;BME280;19511;42.682;23.332;2023-04-07T10:44:07;94955.69;;;8.24;58.84
33155;BME280;19511;42.682;23.332;2023-04-07T10:49:11;94952.59;;;8.11;62.16
33155;BME280;19511;42.682;23.332;2023-04-07T10:51:41;94864.59;;;7.72;58.72
33155;BME280;19511;42.682;23.332;2023-04-07T10:57:04;94961.22;;;8.24;58.01
33155;BME280;19511;42.682;23.332;2023-04-07T10:59:32;94897.25;;;7.70;59.62
33155;BME280;19511;42.682;23.332;2023-04-07T11:04:40;94869.41;;;7.42;59.29
33155;BME280;19511;42.682;23.332;2023-04-07T11:07:07;94966.41;;;7.97;59.35
33155;BME280;19511;42.682;23.332;2023-04-07T11:09:36;94982.50;;;8.02;60.53
33155;BME280;19511;42.682;23.332;2023-04-07T11:12:03;94977.00;;;7.98;62.39
33155;BME280;19511;42.682;23.332;2023-04-07T11:14:32;94943.25;;;7.83;62.42
33155;BME280;19511;42.682;23.332;2023-04-07T11:16:59;94980.88;;;8.23;62.44
33155;BME280;19511;42.682;23.332;2023-04-07T11:19:30;94966.31;;;8.26;61.93
33155;BME280;19511;42.682;23.332;2023-04-07T11:22:15;94965.13;;;8.27;61.53
33155;BME280;19511;42.682;23.332;2023-04-07T11:24:41;94970.94;;;8.50;61.80
33155;BME280;19511;42.682;23.332;2023-04-07T11:27:14;94895.97;;;7.99;63.18
33155;BME280;19511;42.682;23.332;2023-04-07T11:29:39;94975.66;;;8.61;61.51
33155;BME280;19511;42.682;23.332;2023-04-07T11:32:09;94979.22;;;8.50;60.11
33155;BME280;19511;42.682;23.332;2023-04-07T11:34:37;94969.75;;;8.52;62.69
33155;BME280;19511;42.682;23.332;2023-04-07T11:37:28;94959.97;;;8.40;62.83
33155;BME280;19511;42.682;23.332;2023-04-07T11:39:56;94972.91;;;8.43;61.93
33155;BME280;19511;42.682;23.332;2023-04-07T11:42:36;94981.19;;;8.50;63.17
33155;BME280;19511;42.682;23.332;2023-04-07T11:45:05;94881.44;;;7.92;63.74
33155;BME280;19511;42.682;23.332;2023-04-07T11:47:40;94979.88;;;8.80;61.44
33155;BME280;19511;42.682;23.332;2023-04-07T11:50:09;94978.41;;;8.61;62.04
33155;BME280;19511;42.682;23.332;2023-04-07T11:52:47;94885.25;;;8.20;63.09
33155;BME280;19511;42.682;23.332;2023-04-07T11:55:22;94977.78;;;8.95;63.49
33155;BME280;19511;42.682;23.332;2023-04-07T11:57:51;94981.84;;;8.76;63.88
33155;BME280;19511;42.682;23.332;2023-04-07T12:00:16;94974.84;;;8.57;62.89
33155;BME280;19511;42.682;23.332;2023-04-07T12:02:44;94970.56;;;8.48;63.86
33155;BME280;19511;42.682;23.332;2023-04-07T12:05:16;94942.59;;;8.43;63.57
33155;BME280;19511;42.682;23.332;2023-04-07T12:07:52;94976.84;;;8.56;63.93
33155;BME280;19511;42.682;23.332;2023-04-07T12:10:35;94976.03;;;8.56;68.74
33155;BME280;19511;42.682;23.332;2023-04-07T12:13:06;94964.84;;;8.85;66.26
33155;BME280;19511;42.682;23.332;2023-04-07T12:15:34;94903.53;;;8.66;62.64
33155;BME280;19511;42.682;23.332;2023-04-07T12:18:01;94974.44;;;9.22;65.78
33155;BME280;19511;42.682;23.332;2023-04-07T12:20:27;94967.81;;;9.15;62.44
33155;BME280;19511;42.682;23.332;2023-04-07T12:22:54;94971.34;;;9.20;62.26
33155;BME280;19511;42.682;23.332;2023-04-07T12:25:19;94975.50;;;9.42;63.18
33155;BME280;19511;42.682;23.332;2023-04-07T12:27:45;94951.59;;;9.21;64.48
33155;BME280;19511;42.682;23.332;2023-04-07T12:30:12;94974.63;;;9.53;59.83
33155;BME280;19511;42.682;23.332;2023-04-07T12:32:42;94968.84;;;9.36;62.57
33155;BME280;19511;42.682;23.332;2023-04-07T12:35:08;94972.41;;;9.33;62.60
33155;BME280;19511;42.682;23.332;2023-04-07T12:37:37;94969.28;;;9.31;63.99
33155;BME280;19511;42.682;23.332;2023-04-07T12:40:03;94974.34;;;9.40;65.84
33155;BME280;19511;42.682;23.332;2023-04-07T12:42:29;94957.59;;;9.09;61.22
33155;BME280;19511;42.682;23.332;2023-04-07T12:44:54;94973.06;;;8.99;65.29
33155;BME280;19511;42.682;23.332;2023-04-07T12:47:20;94963.91;;;9.09;64.65
33155;BME280;19511;42.682;23.332;2023-04-07T12:49:46;94948.22;;;8.99;61.44
33155;BME280;19511;42.682;23.332;2023-04-07T12:52:16;94974.44;;;9.22;66.19
33155;BME280;19511;42.682;23.332;2023-04-07T12:54:44;94962.19;;;9.30;66.08
33155;BME280;19511;42.682;23.332;2023-04-07T12:57:10;94968.00;;;9.39;63.56
33155;BME280;19511;42.682;23.332;2023-04-07T12:59:36;94973.22;;;9.30;62.40
33155;BME280;19511;42.682;23.332;2023-04-07T13:02:02;94959.19;;;9.06;61.08
33155;BME280;19511;42.682;23.332;2023-04-07T13:04:31;94961.97;;;9.06;64.73
33155;BME280;19511;42.682;23.332;2023-04-07T13:06:57;94975.38;;;9.08;61.28
33155;BME280;19511;42.682;23.332;2023-04-07T13:09:23;94962.56;;;8.72;62.98
33155;BME280;19511;42.682;23.332;2023-04-07T13:11:52;94982.72;;;8.62;68.35
33155;BME280;19511;42.682;23.332;2023-04-07T13:14:18;94981.50;;;8.70;64.80
33155;BME280;19511;42.682;23.332;2023-04-07T13:16:47;94973.06;;;8.95;67.22
33155;BME280;19511;42.682;23.332;2023-04-07T13:19:13;94976.84;;;8.45;64.99
33155;BME280;19511;42.682;23.332;2023-04-07T13:21:38;94892.19;;;7.54;69.61